sensor_id;sensor_type;location;lat;lon;timestamp;temperature;humidity
64209;DHT22;50527;52.414;13.226;2024-03-08T06:26:13;0.80;96.80
64209;DHT22;50527;52.414;13.226;2024-03-08T06:28:39;0.80;96.20
64209;DHT22;50527;52.414;13.226;2024-03-08T06:31:04;0.80;96.50
64209;DHT22;50527;52.414;13.226;2024-03-08T06:33:30;0.90;96.60
64209;DHT22;50527;52.414;13.226;2024-03-08T06:35:57;1.00;96.80
64209;DHT22;50527;52.414;13.226;2024-03-08T06:38:24;1.10;96.60
64209;DHT22;50527;52.414;13.226;2024-03-08T06:40:49;1.20;96.60
64209;DHT22;50527;52.414;13.226;2024-03-08T06:43:16;1.30;95.80
64209;DHT22;50527;52.414;13.226;2024-03-08T06:45:43;1.40;95.40
64209;DHT22;50527;52.414;13.226;2024-03-08T06:48:16;1.50;95.40
64209;DHT22;50527;52.414;13.226;2024-03-08T06:50:46;1.60;95.20
64209;DHT22;50527;52.414;13.226;2024-03-08T06:53:12;1.80;95.10
64209;DHT22;50527;52.414;13.226;2024-03-08T06:55:39;1.80;94.50
64209;DHT22;50527;52.414;13.226;2024-03-08T06:58:04;1.80;94.00
64209;DHT22;50527;52.414;13.226;2024-03-08T07:00:30;1.90;94.10
64209;DHT22;50527;52.414;13.226;2024-03-08T07:02:56;2.00;93.80
64209;DHT22;50527;52.414;13.226;2024-03-08T07:05:22;2.10;93.80
64209;DHT22;50527;52.414;13.226;2024-03-08T07:07:49;2.20;93.20
64209;DHT22;50527;52.414;13.226;2024-03-08T07:10:16;2.50;92.80
64209;DHT22;50527;52.414;13.226;2024-03-08T07:12:42;3.00;92.00
64209;DHT22;50527;52.414;13.226;2024-03-08T07:15:08;3.20;90.50
64209;DHT22;50527;52.414;13.226;2024-03-08T07:17:36;3.30;90.20
64209;DHT22;50527;52.414;13.226;2024-03-08T07:20:01;3.40;88.90
64209;DHT22;50527;52.414;13.226;2024-03-08T07:22:33;3.50;87.80
64209;DHT22;50527;52.414;13.226;2024-03-08T07:24:58;3.60;87.30
64209;DHT22;50527;52.414;13.226;2024-03-08T07:27:46;3.40;87.10
64209;DHT22;50527;52.414;13.226;2024-03-08T07:30:11;3.40;86.60
64209;DHT22;50527;52.414;13.226;2024-03-08T07:32:37;3.50;86.50
64209;DHT22;50527;52.414;13.226;2024-03-08T07:35:03;3.70;85.70
64209;DHT22;50527;52.414;13.226;2024-03-08T07:37:29;4.50;83.50
64209;DHT22;50527;52.414;13.226;2024-03-08T07:39:54;5.40;78.40
64209;DHT22;50527;52.414;13.226;2024-03-08T07:42:20;7.00;73.60
64209;DHT22;50527;52.414;13.226;2024-03-08T07:44:47;8.80;65.10
64209;DHT22;50527;52.414;13.226;2024-03-08T07:47:15;10.80;58.80
64209;DHT22;50527;52.414;13.226;2024-03-08T07:49:42;10.50;57.60
64209;DHT22;50527;52.414;13.226;2024-03-08T07:52:09;9.30;57.80
64209;DHT22;50527;52.414;13.226;2024-03-08T07:54:35;9.20;59.50
64209;DHT22;50527;52.414;13.226;2024-03-08T07:57:00;8.90;59.70
64209;DHT22;50527;52.414;13.226;2024-03-08T07:59:28;10.40;58.70
64209;DHT22;50527;52.414;13.226;2024-03-08T08:01:54;11.60;55.50
64209;DHT22;50527;52.414;13.226;2024-03-08T08:04:20;12.30;53.40
64209;DHT22;50527;52.414;13.226;2024-03-08T08:06:50;11.90;52.80
64209;DHT22;50527;52.414;13.226;2024-03-08T08:09:16;11.50;52.80
64209;DHT22;50527;52.414;13.226;2024-03-08T08:11:47;10.50;54.50
64209;DHT22;50527;52.414;13.226;2024-03-08T08:14:13;9.50;55.90
64209;DHT22;50527;52.414;13.226;2024-03-08T08:16:39;9.20;57.30
64209;DHT22;50527;52.414;13.226;2024-03-08T08:19:07;9.10;58.10
64209;DHT22;50527;52.414;13.226;2024-03-08T08:21:34;9.90;57.20
64209;DHT22;50527;52.414;13.226;2024-03-08T08:24:02;10.70;55.40
64209;DHT22;50527;52.414;13.226;2024-03-08T08:26:29;11.40;53.40
64209;DHT22;50527;52.414;13.226;2024-03-08T08:28:54;11.80;51.70
64209;DHT22;50527;52.414;13.226;2024-03-08T08:31:20;10.80;52.80
64209;DHT22;50527;52.414;13.226;2024-03-08T08:33:45;10.10;55.00
64209;DHT22;50527;52.414;13.226;2024-03-08T08:36:11;10.00;55.40
64209;DHT22;50527;52.414;13.226;2024-03-08T08:38:36;10.30;55.00
64209;DHT22;50527;52.414;13.226;2024-03-08T08:41:05;11.00;54.20
64209;DHT22;50527;52.414;13.226;2024-03-08T08:43:31;11.70;53.20
64209;DHT22;50527;52.414;13.226;2024-03-08T08:45:58;11.50;51.60
64209;DHT22;50527;52.414;13.226;2024-03-08T08:48:24;11.30;52.10
64209;DHT22;50527;52.414;13.226;2024-03-08T08:50:50;11.50;52.80
64209;DHT22;50527;52.414;13.226;2024-03-08T08:53:17;11.80;51.40
64209;DHT22;50527;52.414;13.226;2024-03-08T08:55:43;12.40;51.40
64209;DHT22;50527;52.414;13.226;2024-03-08T08:58:11;13.00;50.00
64209;DHT22;50527;52.414;13.226;2024-03-08T09:00:36;12.80;48.50
64209;DHT22;50527;52.414;13.226;2024-03-08T09:03:02;12.30;48.80
64209;DHT22;50527;52.414;13.226;2024-03-08T09:05:28;12.70;49.60
64209;DHT22;50527;52.414;13.226;2024-03-08T09:07:54;12.50;48.70
64209;DHT22;50527;52.414;13.226;2024-03-08T09:10:20;12.80;48.80
64209;DHT22;50527;52.414;13.226;2024-03-08T09:12:46;12.30;49.30
64209;DHT22;50527;52.414;13.226;2024-03-08T09:15:12;12.40;49.40
64209;DHT22;50527;52.414;13.226;2024-03-08T09:17:38;12.00;49.30
64209;DHT22;50527;52.414;13.226;2024-03-08T09:20:07;12.10;49.10
64209;DHT22;50527;52.414;13.226;2024-03-08T09:22:34;13.20;47.70
64209;DHT22;50527;52.414;13.226;2024-03-08T09:24:59;13.30;47.40
64209;DHT22;50527;52.414;13.226;2024-03-08T09:27:25;14.10;45.70
64209;DHT22;50527;52.414;13.226;2024-03-08T09:29:50;14.00;45.10
64209;DHT22;50527;52.414;13.226;2024-03-08T09:32:16;12.90;46.10
64209;DHT22;50527;52.414;13.226;2024-03-08T09:34:42;12.60;47.10
64209;DHT22;50527;52.414;13.226;2024-03-08T09:37:07;12.90;47.00
64209;DHT22;50527;52.414;13.226;2024-03-08T09:39:34;13.00;46.40
64209;DHT22;50527;52.414;13.226;2024-03-08T09:42:00;12.50;46.50
64209;DHT22;50527;52.414;13.226;2024-03-08T09:44:26;11.20;48.10
64209;DHT22;50527;52.414;13.226;2024-03-08T09:46:55;11.10;49.60
64209;DHT22;50527;52.414;13.226;2024-03-08T09:49:20;11.30;49.10
64209;DHT22;50527;52.414;13.226;2024-03-08T09:51:46;11.20;48.70
64209;DHT22;50527;52.414;13.226;2024-03-08T09:54:12;11.90;48.70
64209;DHT22;50527;52.414;13.226;2024-03-08T09:56:39;12.50;47.10
64209;DHT22;50527;52.414;13.226;2024-03-08T09:59:09;12.50;46.70
64209;DHT22;50527;52.414;13.226;2024-03-08T10:01:53;12.30;46.80
64209;DHT22;50527;52.414;13.226;2024-03-08T10:04:22;13.60;45.40
64209;DHT22;50527;52.414;13.226;2024-03-08T10:06:47;13.00;45.60
64209;DHT22;50527;52.414;13.226;2024-03-08T10:09:14;11.30;47.10
64209;DHT22;50527;52.414;13.226;2024-03-08T10:11:40;10.80;49.10
64209;DHT22;50527;52.414;13.226;2024-03-08T10:14:05;9.90;50.20
64209;DHT22;50527;52.414;13.226;2024-03-08T10:16:33;9.70;51.70
64209;DHT22;50527;52.414;13.226;2024-03-08T10:19:00;9.00;52.20
64209;DHT22;50527;52.414;13.226;2024-03-08T10:21:26;8.40;53.00
64209;DHT22;50527;52.414;13.226;2024-03-08T10:23:52;8.20;53.50
64209;DHT22;50527;52.414;13.226;2024-03-08T10:26:18;8.20;53.40
64209;DHT22;50527;52.414;13.226;2024-03-08T10:28:46;8.10;53.80
64209;DHT22;50527;52.414;13.226;2024-03-08T10:31:15;8.00;54.60
64209;DHT22;50527;52.414;13.226;2024-03-08T10:33:41;8.00;54.30
64209;DHT22;50527;52.414;13.226;2024-03-08T10:36:08;7.80;54.50
64209;DHT22;50527;52.414;13.226;2024-03-08T10:38:37;7.70;55.80
64209;DHT22;50527;52.414;13.226;2024-03-08T10:41:08;7.80;56.00
64209;DHT22;50527;52.414;13.226;2024-03-08T10:49:16;7.90;54.70
64209;DHT22;50527;52.414;13.226;2024-03-08T10:51:46;8.00;54.40
64209;DHT22;50527;52.414;13.226;2024-03-08T10:54:15;8.00;54.60
64209;DHT22;50527;52.414;13.226;2024-03-08T10:56:41;8.20;53.90
64209;DHT22;50527;52.414;13.226;2024-03-08T10:59:08;8.30;53.80
64209;DHT22;50527;52.414;13.226;2024-03-08T11:01:34;8.40;53.00
64209;DHT22;50527;52.414;13.226;2024-03-08T11:03:59;8.60;53.10
64209;DHT22;50527;52.414;13.226;2024-03-08T11:08:57;8.70;52.40
64209;DHT22;50527;52.414;13.226;2024-03-08T11:11:28;8.90;52.90
64209;DHT22;50527;52.414;13.226;2024-03-08T11:13:56;9.00;51.30
64209;DHT22;50527;52.414;13.226;2024-03-08T11:18:53;9.00;50.70
64209;DHT22;50527;52.414;13.226;2024-03-08T11:21:19;9.00;51.50
64209;DHT22;50527;52.414;13.226;2024-03-08T11:24:07;9.10;51.50
64209;DHT22;50527;52.414;13.226;2024-03-08T11:26:33;9.30;51.40
64209;DHT22;50527;52.414;13.226;2024-03-08T11:32:08;9.80;51.50
64209;DHT22;50527;52.414;13.226;2024-03-08T11:34:42;9.90;50.10
64209;DHT22;50527;52.414;13.226;2024-03-08T11:37:11;9.50;50.00
64209;DHT22;50527;52.414;13.226;2024-03-08T11:39:39;9.50;51.00
64209;DHT22;50527;52.414;13.226;2024-03-08T11:42:05;9.50;50.80
64209;DHT22;50527;52.414;13.226;2024-03-08T11:44:32;9.60;50.10
64209;DHT22;50527;52.414;13.226;2024-03-08T11:46:57;9.40;50.00
64209;DHT22;50527;52.414;13.226;2024-03-08T11:49:23;9.50;50.30
64209;DHT22;50527;52.414;13.226;2024-03-08T11:51:52;9.60;50.20
64209;DHT22;50527;52.414;13.226;2024-03-08T11:54:18;9.60;50.00
64209;DHT22;50527;52.414;13.226;2024-03-08T11:56:44;9.50;49.80
64209;DHT22;50527;52.414;13.226;2024-03-08T11:59:13;9.20;49.50
64209;DHT22;50527;52.414;13.226;2024-03-08T12:01:39;9.20;50.10
64209;DHT22;50527;52.414;13.226;2024-03-08T12:04:04;9.40;50.00
64209;DHT22;50527;52.414;13.226;2024-03-08T12:06:38;9.50;48.40
64209;DHT22;50527;52.414;13.226;2024-03-08T12:09:11;9.20;49.60
64209;DHT22;50527;52.414;13.226;2024-03-08T12:11:38;9.00;50.20
64209;DHT22;50527;52.414;13.226;2024-03-08T12:14:04;9.30;48.90
64209;DHT22;50527;52.414;13.226;2024-03-08T12:16:29;9.30;47.80
64209;DHT22;50527;52.414;13.226;2024-03-08T12:18:56;9.30;48.40
64209;DHT22;50527;52.414;13.226;2024-03-08T12:21:21;9.60;48.40
64209;DHT22;50527;52.414;13.226;2024-03-08T12:24:08;9.60;48.70
64209;DHT22;50527;52.414;13.226;2024-03-08T12:26:38;9.80;48.70
64209;DHT22;50527;52.414;13.226;2024-03-08T12:29:27;9.70;46.20
64209;DHT22;50527;52.414;13.226;2024-03-08T12:31:58;9.50;46.00
64209;DHT22;50527;52.414;13.226;2024-03-08T12:34:26;9.60;46.10
64209;DHT22;50527;52.414;13.226;2024-03-08T12:36:52;9.40;46.30
64209;DHT22;50527;52.414;13.226;2024-03-08T12:39:19;9.40;46.50
64209;DHT22;50527;52.414;13.226;2024-03-08T12:41:52;9.40;46.40
64209;DHT22;50527;52.414;13.226;2024-03-08T12:44:18;9.40;47.20
64209;DHT22;50527;52.414;13.226;2024-03-08T12:46:46;9.50;46.70
64209;DHT22;50527;52.414;13.226;2024-03-08T12:49:13;9.50;46.50
64209;DHT22;50527;52.414;13.226;2024-03-08T12:51:45;9.50;46.00
64209;DHT22;50527;52.414;13.226;2024-03-08T12:54:11;9.60;46.00
64209;DHT22;50527;52.414;13.226;2024-03-08T12:56:36;9.70;46.20
64209;DHT22;50527;52.414;13.226;2024-03-08T12:59:04;9.70;46.30
64209;DHT22;50527;52.414;13.226;2024-03-08T13:01:30;9.60;46.80
64209;DHT22;50527;52.414;13.226;2024-03-08T13:03:59;9.70;46.90
64209;DHT22;50527;52.414;13.226;2024-03-08T13:06:28;9.80;47.10
64209;DHT22;50527;52.414;13.226;2024-03-08T13:08:54;9.90;46.20
64209;DHT22;50527;52.414;13.226;2024-03-08T13:11:21;9.80;46.10
64209;DHT22;50527;52.414;13.226;2024-03-08T13:13:46;9.80;46.00
64209;DHT22;50527;52.414;13.226;2024-03-08T13:16:13;9.90;46.50
64209;DHT22;50527;52.414;13.226;2024-03-08T13:18:43;9.90;47.00
64209;DHT22;50527;52.414;13.226;2024-03-08T13:21:12;9.80;45.80
64209;DHT22;50527;52.414;13.226;2024-03-08T13:23:41;9.70;46.50
64209;DHT22;50527;52.414;13.226;2024-03-08T13:26:10;9.90;47.20
64209;DHT22;50527;52.414;13.226;2024-03-08T13:28:47;10.10;46.40
64209;DHT22;50527;52.414;13.226;2024-03-08T13:31:19;10.20;46.80
64209;DHT22;50527;52.414;13.226;2024-03-08T13:33:45;10.10;45.80
64209;DHT22;50527;52.414;13.226;2024-03-08T13:36:12;10.20;46.10
64209;DHT22;50527;52.414;13.226;2024-03-08T13:38:42;10.10;45.50
64209;DHT22;50527;52.414;13.226;2024-03-08T13:41:09;10.00;45.60
64209;DHT22;50527;52.414;13.226;2024-03-08T13:43:34;9.90;45.90
64209;DHT22;50527;52.414;13.226;2024-03-08T13:46:02;9.80;46.30
64209;DHT22;50527;52.414;13.226;2024-03-08T13:48:27;10.00;46.80
64209;DHT22;50527;52.414;13.226;2024-03-08T13:50:53;10.00;45.70
64209;DHT22;50527;52.414;13.226;2024-03-08T13:53:20;9.90;45.90
64209;DHT22;50527;52.414;13.226;2024-03-08T13:55:45;9.80;46.50
64209;DHT22;50527;52.414;13.226;2024-03-08T13:58:11;9.80;46.40
64209;DHT22;50527;52.414;13.226;2024-03-08T14:00:39;9.70;46.70
64209;DHT22;50527;52.414;13.226;2024-03-08T14:03:06;9.80;47.00
64209;DHT22;50527;52.414;13.226;2024-03-08T14:05:32;9.80;47.20
64209;DHT22;50527;52.414;13.226;2024-03-08T14:08:01;9.80;47.40
64209;DHT22;50527;52.414;13.226;2024-03-08T14:10:29;9.80;47.70
64209;DHT22;50527;52.414;13.226;2024-03-08T14:12:59;9.90;48.00
64209;DHT22;50527;52.414;13.226;2024-03-08T14:15:25;10.00;48.30
64209;DHT22;50527;52.414;13.226;2024-03-08T14:17:54;10.10;47.00
64209;DHT22;50527;52.414;13.226;2024-03-08T14:20:20;10.10;47.00
64209;DHT22;50527;52.414;13.226;2024-03-08T14:22:59;10.00;46.50
64209;DHT22;50527;52.414;13.226;2024-03-08T14:25:25;10.00;46.50
64209;DHT22;50527;52.414;13.226;2024-03-08T14:27:52;9.90;46.80
64209;DHT22;50527;52.414;13.226;2024-03-08T14:30:23;9.90;47.30
64209;DHT22;50527;52.414;13.226;2024-03-08T14:33:04;9.90;47.30
64209;DHT22;50527;52.414;13.226;2024-03-08T14:35:34;9.90;47.80
64209;DHT22;50527;52.414;13.226;2024-03-08T14:38:00;10.00;47.30
64209;DHT22;50527;52.414;13.226;2024-03-08T14:40:26;10.00;46.30
64209;DHT22;50527;52.414;13.226;2024-03-08T14:42:52;10.00;46.80
64209;DHT22;50527;52.414;13.226;2024-03-08T14:45:18;10.00;47.50
64209;DHT22;50527;52.414;13.226;2024-03-08T14:47:47;10.00;48.20
64209;DHT22;50527;52.414;13.226;2024-03-08T14:50:19;10.10;48.20
64209;DHT22;50527;52.414;13.226;2024-03-08T14:52:45;10.00;48.90
64209;DHT22;50527;52.414;13.226;2024-03-08T14:55:14;10.00;48.20
64209;DHT22;50527;52.414;13.226;2024-03-08T14:57:41;9.90;47.20
64209;DHT22;50527;52.414;13.226;2024-03-08T15:00:08;9.90;47.10
64209;DHT22;50527;52.414;13.226;2024-03-08T15:02:41;9.90;46.70
64209;DHT22;50527;52.414;13.226;2024-03-08T15:05:07;9.80;46.80
64209;DHT22;50527;52.414;13.226;2024-03-08T15:07:39;9.90;47.70
64209;DHT22;50527;52.414;13.226;2024-03-08T15:10:07;9.80;47.70
64209;DHT22;50527;52.414;13.226;2024-03-08T15:12:36;9.80;47.70
64209;DHT22;50527;52.414;13.226;2024-03-08T15:15:02;9.80;48.50
64209;DHT22;50527;52.414;13.226;2024-03-08T15:17:33;9.80;48.60
64209;DHT22;50527;52.414;13.226;2024-03-08T15:20:00;9.80;48.60
64209;DHT22;50527;52.414;13.226;2024-03-08T15:22:25;9.90;49.00
64209;DHT22;50527;52.414;13.226;2024-03-08T15:24:52;9.80;48.50
64209;DHT22;50527;52.414;13.226;2024-03-08T15:27:18;9.80;48.90
64209;DHT22;50527;52.414;13.226;2024-03-08T15:29:44;9.80;48.80
64209;DHT22;50527;52.414;13.226;2024-03-08T15:32:14;9.70;48.80
64209;DHT22;50527;52.414;13.226;2024-03-08T15:34:46;9.80;49.30
64209;DHT22;50527;52.414;13.226;2024-03-08T15:37:11;9.80;50.20
64209;DHT22;50527;52.414;13.226;2024-03-08T15:39:43;9.70;48.80
64209;DHT22;50527;52.414;13.226;2024-03-08T15:42:08;9.70;49.20
64209;DHT22;50527;52.414;13.226;2024-03-08T15:44:36;9.70;49.20
64209;DHT22;50527;52.414;13.226;2024-03-08T15:47:03;9.70;49.30
64209;DHT22;50527;52.414;13.226;2024-03-08T15:49:32;9.70;50.10
64209;DHT22;50527;52.414;13.226;2024-03-08T15:51:58;9.70;48.50
64209;DHT22;50527;52.414;13.226;2024-03-08T15:54:23;9.60;48.30
64209;DHT22;50527;52.414;13.226;2024-03-08T15:56:49;9.60;48.20
64209;DHT22;50527;52.414;13.226;2024-03-08T15:59:15;9.60;48.70
64209;DHT22;50527;52.414;13.226;2024-03-08T16:01:41;9.50;49.40
64209;DHT22;50527;52.414;13.226;2024-03-08T16:04:06;9.50;49.30
64209;DHT22;50527;52.414;13.226;2024-03-08T16:06:32;9.50;48.80
64209;DHT22;50527;52.414;13.226;2024-03-08T16:08:57;9.50;49.20
64209;DHT22;50527;52.414;13.226;2024-03-08T16:11:24;9.40;49.50
64209;DHT22;50527;52.414;13.226;2024-03-08T16:13:50;9.30;48.80
64209;DHT22;50527;52.414;13.226;2024-03-08T16:16:15;9.20;49.10
64209;DHT22;50527;52.414;13.226;2024-03-08T16:18:42;9.20;49.50
64209;DHT22;50527;52.414;13.226;2024-03-08T16:21:07;9.20;49.40
64209;DHT22;50527;52.414;13.226;2024-03-08T16:23:33;9.10;49.50
64209;DHT22;50527;52.414;13.226;2024-03-08T16:25:58;9.00;50.10
64209;DHT22;50527;52.414;13.226;2024-03-08T16:28:24;9.00;50.20
64209;DHT22;50527;52.414;13.226;2024-03-08T16:30:53;9.00;50.40
64209;DHT22;50527;52.414;13.226;2024-03-08T16:33:24;8.90;50.90
64209;DHT22;50527;52.414;13.226;2024-03-08T16:35:50;8.90;51.10
64209;DHT22;50527;52.414;13.226;2024-03-08T16:38:16;8.90;51.10
64209;DHT22;50527;52.414;13.226;2024-03-08T16:40:44;8.80;51.20
64209;DHT22;50527;52.414;13.226;2024-03-08T16:43:10;8.70;51.80
64209;DHT22;50527;52.414;13.226;2024-03-08T16:45:41;8.60;51.80
64209;DHT22;50527;52.414;13.226;2024-03-08T16:48:09;8.60;52.10
64209;DHT22;50527;52.414;13.226;2024-03-08T16:50:35;8.60;52.20
64209;DHT22;50527;52.414;13.226;2024-03-08T16:53:01;8.50;52.30
64209;DHT22;50527;52.414;13.226;2024-03-08T16:55:29;8.50;52.70
64209;DHT22;50527;52.414;13.226;2024-03-08T16:57:55;8.40;53.20
64209;DHT22;50527;52.414;13.226;2024-03-08T17:00:22;8.30;53.50
64209;DHT22;50527;52.414;13.226;2024-03-08T17:02:56;8.30;53.90
64209;DHT22;50527;52.414;13.226;2024-03-08T17:05:23;8.20;54.00
64209;DHT22;50527;52.414;13.226;2024-03-08T17:07:53;8.20;53.90
64209;DHT22;50527;52.414;13.226;2024-03-08T17:10:19;8.10;54.30
64209;DHT22;50527;52.414;13.226;2024-03-08T17:12:48;8.10;54.50
64209;DHT22;50527;52.414;13.226;2024-03-08T17:15:15;8.00;54.70
64209;DHT22;50527;52.414;13.226;2024-03-08T17:17:42;8.00;54.90
64209;DHT22;50527;52.414;13.226;2024-03-08T17:20:09;7.90;55.20
64209;DHT22;50527;52.414;13.226;2024-03-08T17:22:43;7.90;55.60
64209;DHT22;50527;52.414;13.226;2024-03-08T17:25:09;7.80;55.70
64209;DHT22;50527;52.414;13.226;2024-03-08T17:27:41;7.80;55.90
64209;DHT22;50527;52.414;13.226;2024-03-08T17:30:08;7.80;56.40
64209;DHT22;50527;52.414;13.226;2024-03-08T17:32:51;7.70;56.40
64209;DHT22;50527;52.414;13.226;2024-03-08T17:35:20;7.70;56.80
64209;DHT22;50527;52.414;13.226;2024-03-08T17:37:47;7.70;57.40
64209;DHT22;50527;52.414;13.226;2024-03-08T17:40:16;7.60;58.00
64209;DHT22;50527;52.414;13.226;2024-03-08T17:42:50;7.60;58.40
64209;DHT22;50527;52.414;13.226;2024-03-08T17:45:17;7.60;58.70
64209;DHT22;50527;52.414;13.226;2024-03-08T17:47:43;7.50;59.00
64209;DHT22;50527;52.414;13.226;2024-03-08T17:50:09;7.50;58.60
64209;DHT22;50527;52.414;13.226;2024-03-08T17:52:40;7.40;59.60
64209;DHT22;50527;52.414;13.226;2024-03-08T17:55:06;7.40;59.50
64209;DHT22;50527;52.414;13.226;2024-03-08T17:57:35;7.40;59.50
64209;DHT22;50527;52.414;13.226;2024-03-08T18:00:02;7.30;60.00
64209;DHT22;50527;52.414;13.226;2024-03-08T18:02:28;7.30;60.30
64209;DHT22;50527;52.414;13.226;2024-03-08T18:04:53;7.20;60.90
64209;DHT22;50527;52.414;13.226;2024-03-08T18:07:19;7.20;60.70
64209;DHT22;50527;52.414;13.226;2024-03-08T18:09:44;7.20;61.10
64209;DHT22;50527;52.414;13.226;2024-03-08T18:12:11;7.10;61.50
64209;DHT22;50527;52.414;13.226;2024-03-08T18:14:36;7.10;61.70
64209;DHT22;50527;52.414;13.226;2024-03-08T18:17:03;7.10;62.40
64209;DHT22;50527;52.414;13.226;2024-03-08T18:19:30;7.00;63.00
64209;DHT22;50527;52.414;13.226;2024-03-08T18:21:56;7.00;62.90
64209;DHT22;50527;52.414;13.226;2024-03-08T18:24:22;7.00;62.90
64209;DHT22;50527;52.414;13.226;2024-03-08T18:26:48;6.90;63.40
64209;DHT22;50527;52.414;13.226;2024-03-08T18:29:14;7.00;63.60
64209;DHT22;50527;52.414;13.226;2024-03-08T18:31:41;6.90;63.50
64209;DHT22;50527;52.414;13.226;2024-03-08T18:34:07;6.90;64.50
64209;DHT22;50527;52.414;13.226;2024-03-08T18:36:32;6.90;64.10
64209;DHT22;50527;52.414;13.226;2024-03-08T18:39:02;6.90;64.00
64209;DHT22;50527;52.414;13.226;2024-03-08T18:41:29;6.80;64.60
64209;DHT22;50527;52.414;13.226;2024-03-08T18:44:01;6.80;64.50
64209;DHT22;50527;52.414;13.226;2024-03-08T18:46:28;6.80;64.60
64209;DHT22;50527;52.414;13.226;2024-03-08T18:48:55;6.70;65.00
64209;DHT22;50527;52.414;13.226;2024-03-08T18:51:20;6.80;65.00
64209;DHT22;50527;52.414;13.226;2024-03-08T18:53:46;6.70;65.20
64209;DHT22;50527;52.414;13.226;2024-03-08T18:56:11;6.70;65.60
64209;DHT22;50527;52.414;13.226;2024-03-08T18:58:40;6.60;65.40
64209;DHT22;50527;52.414;13.226;2024-03-08T19:01:05;6.50;66.20
64209;DHT22;50527;52.414;13.226;2024-03-08T19:03:31;6.50;66.00
64209;DHT22;50527;52.414;13.226;2024-03-08T19:05:58;6.40;66.80
64209;DHT22;50527;52.414;13.226;2024-03-08T19:08:23;6.40;65.80
64209;DHT22;50527;52.414;13.226;2024-03-08T19:10:49;6.40;65.70
64209;DHT22;50527;52.414;13.226;2024-03-08T19:13:16;6.40;66.00
64209;DHT22;50527;52.414;13.226;2024-03-08T19:15:42;6.30;65.80
64209;DHT22;50527;52.414;13.226;2024-03-08T19:18:07;6.30;65.60
64209;DHT22;50527;52.414;13.226;2024-03-08T19:20:33;6.30;66.40
64209;DHT22;50527;52.414;13.226;2024-03-08T19:23:01;6.30;65.50
64209;DHT22;50527;52.414;13.226;2024-03-08T19:25:32;6.20;65.80
64209;DHT22;50527;52.414;13.226;2024-03-08T19:28:04;6.10;66.10
64209;DHT22;50527;52.414;13.226;2024-03-08T19:30:32;6.10;66.30
64209;DHT22;50527;52.414;13.226;2024-03-08T19:32:59;6.10;66.60
64209;DHT22;50527;52.414;13.226;2024-03-08T19:35:26;6.10;66.30
64209;DHT22;50527;52.414;13.226;2024-03-08T19:37:54;6.10;66.30
64209;DHT22;50527;52.414;13.226;2024-03-08T19:40:21;6.00;66.80
64209;DHT22;50527;52.414;13.226;2024-03-08T19:42:54;5.90;66.60
64209;DHT22;50527;52.414;13.226;2024-03-08T19:45:20;5.90;66.60
64209;DHT22;50527;52.414;13.226;2024-03-08T19:47:46;5.90;66.80
64209;DHT22;50527;52.414;13.226;2024-03-08T19:50:13;5.90;67.30
64209;DHT22;50527;52.414;13.226;2024-03-08T19:52:42;5.80;66.30
64209;DHT22;50527;52.414;13.226;2024-03-08T19:55:09;5.80;67.10
64209;DHT22;50527;52.414;13.226;2024-03-08T19:57:35;5.70;66.90
64209;DHT22;50527;52.414;13.226;2024-03-08T20:00:02;5.70;67.60
64209;DHT22;50527;52.414;13.226;2024-03-08T20:02:29;5.70;67.20
64209;DHT22;50527;52.414;13.226;2024-03-08T20:04:55;5.60;67.20
64209;DHT22;50527;52.414;13.226;2024-03-08T20:07:21;5.60;67.50
64209;DHT22;50527;52.414;13.226;2024-03-08T20:09:47;5.50;67.60
64209;DHT22;50527;52.414;13.226;2024-03-08T20:12:12;5.50;67.50
64209;DHT22;50527;52.414;13.226;2024-03-08T20:14:38;5.50;67.50
64209;DHT22;50527;52.414;13.226;2024-03-08T20:17:04;5.50;67.80
64209;DHT22;50527;52.414;13.226;2024-03-08T20:19:30;5.50;67.70
64209;DHT22;50527;52.414;13.226;2024-03-08T20:21:57;5.40;67.80
64209;DHT22;50527;52.414;13.226;2024-03-08T20:24:24;5.40;68.00
64209;DHT22;50527;52.414;13.226;2024-03-08T20:26:50;5.40;68.00
64209;DHT22;50527;52.414;13.226;2024-03-08T20:29:15;5.40;68.10
64209;DHT22;50527;52.414;13.226;2024-03-08T20:31:40;5.30;68.60
64209;DHT22;50527;52.414;13.226;2024-03-08T20:34:07;5.30;68.80
64209;DHT22;50527;52.414;13.226;2024-03-08T20:36:35;5.30;68.40
64209;DHT22;50527;52.414;13.226;2024-03-08T20:39:01;5.30;68.70
64209;DHT22;50527;52.414;13.226;2024-03-08T20:41:26;5.30;69.00
64209;DHT22;50527;52.414;13.226;2024-03-08T20:43:52;5.20;69.60
64209;DHT22;50527;52.414;13.226;2024-03-08T20:46:21;5.20;69.00
64209;DHT22;50527;52.414;13.226;2024-03-08T20:48:46;5.20;69.40
64209;DHT22;50527;52.414;13.226;2024-03-08T20:51:15;5.10;69.70
64209;DHT22;50527;52.414;13.226;2024-03-08T20:53:42;5.20;69.70
64209;DHT22;50527;52.414;13.226;2024-03-08T20:56:08;5.10;70.00
64209;DHT22;50527;52.414;13.226;2024-03-08T20:58:35;5.10;70.30
64209;DHT22;50527;52.414;13.226;2024-03-08T21:01:00;5.10;70.00
64209;DHT22;50527;52.414;13.226;2024-03-08T21:03:29;5.10;70.00
64209;DHT22;50527;52.414;13.226;2024-03-08T21:05:55;5.00;70.40
64209;DHT22;50527;52.414;13.226;2024-03-08T21:08:23;4.90;71.00
64209;DHT22;50527;52.414;13.226;2024-03-08T21:10:50;4.90;70.90
64209;DHT22;50527;52.414;13.226;2024-03-08T21:13:20;4.90;71.10
64209;DHT22;50527;52.414;13.226;2024-03-08T21:15:52;4.90;71.00
64209;DHT22;50527;52.414;13.226;2024-03-08T21:18:21;4.90;71.40
64209;DHT22;50527;52.414;13.226;2024-03-08T21:20:47;4.90;71.50
64209;DHT22;50527;52.414;13.226;2024-03-08T21:23:12;4.80;71.70
64209;DHT22;50527;52.414;13.226;2024-03-08T21:25:40;4.80;71.80
64209;DHT22;50527;52.414;13.226;2024-03-08T21:28:08;4.80;71.50
64209;DHT22;50527;52.414;13.226;2024-03-08T21:30:34;4.70;71.80
64209;DHT22;50527;52.414;13.226;2024-03-08T21:33:00;4.70;72.10
64209;DHT22;50527;52.414;13.226;2024-03-08T21:35:27;4.70;72.50
64209;DHT22;50527;52.414;13.226;2024-03-08T21:37:55;4.70;72.30
64209;DHT22;50527;52.414;13.226;2024-03-08T21:40:21;4.80;72.40
64209;DHT22;50527;52.414;13.226;2024-03-08T21:42:48;4.70;72.50
64209;DHT22;50527;52.414;13.226;2024-03-08T21:45:14;4.70;72.50
64209;DHT22;50527;52.414;13.226;2024-03-08T21:47:42;4.70;73.10
64209;DHT22;50527;52.414;13.226;2024-03-08T21:50:09;4.70;73.40
64209;DHT22;50527;52.414;13.226;2024-03-08T21:52:40;4.70;73.10
64209;DHT22;50527;52.414;13.226;2024-03-08T21:55:05;4.70;73.20
64209;DHT22;50527;52.414;13.226;2024-03-08T21:57:31;4.70;73.70
64209;DHT22;50527;52.414;13.226;2024-03-08T21:59:56;4.60;73.40
64209;DHT22;50527;52.414;13.226;2024-03-08T22:02:22;4.60;73.20
64209;DHT22;50527;52.414;13.226;2024-03-08T22:04:47;4.60;73.40
64209;DHT22;50527;52.414;13.226;2024-03-08T22:07:13;4.60;73.80